x

St. Augustine, Fl (sauf1) Weather Station

10:00pm - Mon 25th Sep 2017 All times are EDT. -4 hours from GMT.

  • Wind
    10mph, 13mph gusts
  • Sea Temp 82°f
  • Air Temp 80°f
  • Sea Pressure 1012.4mb
  • St. Augustine, Fl
  • St. Augustine, Fl

More Historic Weather Station data

Upgrade to MSW Pro to gain access to the past 30 days of data for over 8000 Wavebouys and Weather Stations around the globe.

Join

Comparision Forecast

View Surf forecast
   
Mon 09/25 10:00pm 10 13 mph 1012.4mb 82f 80f
9:00pm 14 15 mph 1011.4mb 82f 80f
8:00pm 13 14 mph 1011.4mb 82f 80f
7:00pm 9 10 mph 1010.9mb 83f 80f
6:00pm 15 16 mph 1010.8mb 83f 80f
5:00pm 18 21 mph 1010.7mb 83f 80f
4:00pm 18 21 mph 1011.1mb 83f 80f
3:00pm 18 21 mph 1011.7mb 83f 80f
2:00pm 13 14 mph 1012.2mb 82f 80f
1:00pm 14 15 mph 1013.1mb 82f 79f
12:00pm 14 15 mph 1013.7mb 82f 79f
11:00am 14 16 mph 1013.4mb 82f 79f
10:00am 11 13 mph 1013.3mb 82f 78f
9:00am 6 7 mph 1013.3mb 82f 78f
8:00am 15 16 mph 1012.7mb 81f 80f
7:00am 17 20 mph 1012.6mb 82f 80f
6:00am 18 18 mph 1012.1mb 82f 80f
5:00am 17 20 mph 1011.9mb 82f 80f
4:00am 20 21 mph 1011.6mb 82f 80f
3:00am 16 17 mph 1011.7mb 82f 80f
2:00am 17 18 mph 1011.8mb 82f 80f
1:00am 15 16 mph 1012.4mb 82f 80f
12:00am 17 20 mph 1012.9mb 82f 79f
Sun 09/24 11:00pm 16 18 mph 1013.2mb 82f 80f
10:00pm 20 22 mph 1013.3mb 82f 80f
9:00pm 20 22 mph 1013.2mb 82f 80f
8:00pm 21 23 mph 1012.8mb 82f 80f
7:00pm 22 24 mph 1012.9mb 82f 80f
6:00pm 21 22 mph 1012.6mb 83f 80f
5:00pm 21 23 mph 1012.9mb 83f 81f
4:00pm 20 22 mph 1013mb 83f 81f
3:00pm 23 24 mph 1013.4mb 83f 81f
2:00pm 18 20 mph 1014.1mb 82f 81f
1:00pm 18 21 mph 1014.4mb 82f 81f
12:00pm 16 17 mph 1014.8mb 82f 81f
11:00am 15 17 mph 1015mb 82f 82f
10:00am 13 14 mph 1014.4mb 82f 82f
9:00am 17 18 mph 1013.9mb 81f 82f
8:00am 18 20 mph 1013.5mb 81f 81f
7:00am 17 20 mph 1013.2mb 81f 81f
6:00am 20 22 mph 1012.6mb 82f 81f
5:00am 20 21 mph 1012.3mb 82f 81f
4:00am 17 18 mph 1012.3mb 82f 82f
3:00am 16 17 mph 1012.6mb 82f 82f
2:00am 18 21 mph 1012.4mb 82f 82f
1:00am 17 20 mph 1012.9mb 82f 82f
12:00am 17 20 mph 1013.2mb 82f 82f
Sat 09/23 11:00pm 18 21 mph 1013.6mb 82f 82f
10:00pm 22 23 mph 1013.5mb 82f 82f
9:00pm 22 24 mph 1013.1mb 83f 82f
8:00pm 21 23 mph 1013.3mb 83f 82f
7:00pm 21 23 mph 1013.2mb 83f 82f
6:00pm 22 23 mph 1013mb 83f 82f
5:00pm 18 20 mph 1013.2mb 83f 82f
4:00pm 20 21 mph 1013.3mb 83f 82f
3:00pm 16 17 mph 1013.8mb 83f 82f
2:00pm 14 15 mph 1014.2mb 82f 81f
1:00pm 13 14 mph 1014.8mb 82f 81f
12:00pm 16 18 mph 1015mb 82f 78f
11:00am 15 16 mph 1014.6mb 82f 80f
10:00am 17 17 mph 1014.5mb 82f 79f
9:00am 17 18 mph 1014.4mb 82f 80f
8:00am 17 18 mph 1013.8mb 82f 80f
7:00am 8 9 mph 1013.4mb 82f 80f
6:00am 7 7 mph 1013.1mb 82f 79f
5:00am 13 15 mph 1012.9mb 82f 77f
4:00am 13 14 mph 1013.1mb 82f 80f
3:00am 13 14 mph 1013.5mb 82f 80f
2:00am 14 14 mph 1013.5mb 83f 80f
1:00am 14 15 mph 1013.6mb 83f 80f
12:00am 9 11 mph 1014.1mb 83f 80f
Fri 09/22 11:00pm 11 13 mph 1014.2mb 83f 80f
10:00pm 11 13 mph 1014.5mb 83f 80f
9:00pm 15 17 mph 1014.3mb 83f 80f
8:00pm 11 13 mph 1014mb 83f 79f
7:00pm 13 14 mph 1013.7mb 84f 80f
6:00pm 17 18 mph 1013.7mb 84f 81f
5:00pm 16 17 mph 1014.1mb 84f 81f
4:00pm 16 17 mph 1014.1mb 84f 80f
3:00pm 18 20 mph 1014.6mb 84f 80f
2:00pm 18 21 mph 1015.3mb 83f 79f
1:00pm 26 29 mph 1015.8mb 83f 77f
12:00pm 15 16 mph 1016.1mb 83f 79f
11:00am 16 18 mph 1016.2mb 83f 80f
10:00am 20 21 mph 1016mb 83f 80f
9:00am 17 20 mph 1015.2mb 83f 79f
8:00am 18 20 mph 1015.2mb 82f 81f
7:00am 16 16 mph 1014.7mb 83f 81f
6:00am 15 16 mph 1014.5mb 83f 81f
5:00am 15 17 mph 1014.2mb 83f 81f
4:00am 11 14 mph 1014.2mb 83f 81f